Latest Weather Observations for Moorabbin Airport

IDV60901

Issued at 3:51 am EST Wednesday 23 September 2020 (issued every 10 minutes, with the page automatically refreshed every 10 minutes)

About weather observations | Map of Melbourne area stations | Latest observations for Melbourne area | Other Formats
Station Details ID: 086077 Name: MOORABBIN AIRPORT Lat: -37.98 Lon: 145.10 Height: 12.1 m
Data from the previous 72 hours. | See also: Recent months at Moorabbin Airport
Date/Time
EST
Temp
°C
App
Temp
°C
Dew
Point
°C
Rel
Hum
%
Delta-T
°C
Wind Press
QNH
hPa
Press
MSL
hPa
Rain since
9am
mm
Dir  Spd
km/h
Gust
km/h
Spd
kts
Gust
kts
23/03:30am 11.8 7.2 5.7 66 2.8 NNW 19 30 10 16 1009.7 1009.7 2.2
23/03:00am 11.9 7.1 5.5 65 3.0 NW 20 33 11 18 1009.7 1009.7 2.2
23/02:30am 12.0 7.2 5.6 65 3.0 NW 20 35 11 19 1009.7 1009.7 2.2
23/02:00am 12.0 7.3 5.9 66 2.9 NW 20 32 11 17 1009.8 1009.8 2.2
23/01:30am 12.1 7.5 5.5 64 3.1 NW 19 30 10 16 1010.1 1010.1 2.2
23/01:00am 12.3 7.7 5.5 63 3.2 NW 19 28 10 15 1010.1 1010.1 2.2
23/12:30am 12.0 8.2 5.9 66 2.9 NNW 15 19 8 10 1010.1 1010.1 2.2
23/12:00am 12.1 8.8 6.2 67 2.8 NNW 13 17 7 9 1010.2 1010.2 2.2
 
Date/Time
EST
Temp
°C
App
Temp
°C
Dew
Point
°C
Rel
Hum
%
Delta-T
°C
Wind Press
QNH
hPa
Press
MSL
hPa
Rain since
9am
mm
Dir  Spd
km/h
Gust
km/h
Spd
kts
Gust
kts
22/11:30pm 12.2 8.2 6.5 68 2.7 NNW 17 22 9 12 1010.0 1010.0 2.2
22/11:00pm 12.4 8.7 6.5 67 2.8 NNW 15 20 8 11 1010.1 1010.1 2.2
22/10:30pm 12.8 9.1 6.4 65 3.0 NNW 15 20 8 11 1010.1 1010.1 2.2
22/10:00pm 12.5 8.8 6.3 66 2.9 NNW 15 24 8 13 1009.9 1009.9 2.2
22/09:30pm 12.4 7.9 6.2 66 2.9 NW 19 28 10 15 1009.9 1009.9 2.2
22/09:00pm 12.6 8.7 7.3 70 2.6 NNW 17 26 9 14 1009.8 1009.8 2.2
22/08:30pm 12.4 9.3 7.1 70 2.6 NW 13 20 7 11 1010.0 1010.0 2.2
22/08:00pm 13.0 9.1 7.2 68 2.8 WNW 17 24 9 13 1009.6 1009.6 2.2
22/07:30pm 12.2 8.5 7.9 75 2.1 WNW 17 24 9 13 1009.2 1009.2 2.2
22/07:00pm 12.4 8.3 7.7 73 2.3 W 19 35 10 19 1008.7 1008.7 2.2
22/06:30pm 12.9 8.3 8.0 72 2.4 WNW 22 33 12 18 1008.2 1008.2 2.2
22/06:02pm 13.5 7.8 8.4 71 2.5 W 28 48 15 26 1007.7 1007.7 2.2
22/06:00pm 13.5 7.8 8.4 71 2.6 W 28 44 15 24 1007.7 1007.7 2.2
22/05:30pm 14.5 8.3 8.0 65 3.2 WNW 30 46 16 25 1007.0 1007.0 2.2
22/05:09pm 14.6 8.1 8.3 66 3.2 NW 32 50 17 27 1006.1 1006.1 2.2
22/05:00pm 14.6 7.5 7.9 64 3.3 NW 35 50 19 27 1005.7 1005.7 2.2
22/04:38pm 14.0 8.5 9.0 72 2.5 NW 28 46 15 25 1005.3 1005.3 2.2
22/04:30pm 13.9 8.0 8.9 72 2.5 WNW 30 44 16 24 1005.2 1005.2 2.2
22/04:28pm 13.9 8.0 8.9 72 2.5 WNW 30 46 16 25 1005.2 1005.2 2.2
22/04:06pm 12.5 5.1 8.2 75 2.1 W 37 76 20 41 1005.1 1005.1 1.0
22/04:05pm 12.7 5.6 8.0 73 2.3 W 35 76 19 41 1004.9 1004.9 0.8
22/04:00pm 14.3 6.5 6.6 60 3.7 WNW 37 61 20 33 1004.7 1004.7 0.0
22/03:58pm 15.1 7.2 6.4 56 4.2 WNW 37 61 20 33 1004.6 1004.6 0.0
22/03:56pm 16.9 9.0 6.4 50 5.2 WNW 37 61 20 33 1004.5 1004.5 0.0
22/03:30pm 17.9 10.3 7.6 51 5.2 NW 37 56 20 30 1003.7 1003.7 0.0
22/03:00pm 17.8 10.5 7.2 50 5.3 NW 35 57 19 31 1003.5 1003.5 0.0
22/02:38pm 17.4 10.5 6.6 49 5.3 NW 32 59 17 32 1003.3 1003.3 0.0
22/02:30pm 17.7 10.8 7.2 50 5.3 NW 33 48 18 26 1003.4 1003.4 0.0
22/02:00pm 17.6 8.6 6.5 48 5.5 NW 43 72 23 39 1003.4 1003.4 0.0
22/01:30pm 18.1 9.5 6.6 47 5.7 NNW 41 61 22 33 1003.3 1003.3 0.0
22/01:00pm 17.8 8.9 7.0 49 5.4 NNW 43 65 23 35 1003.6 1003.6 0.0
22/12:30pm 16.7 9.2 6.5 51 5.0 NNW 35 56 19 30 1004.1 1004.1 0.0
22/12:28pm 16.7 9.2 6.2 50 5.1 NNW 35 56 19 30 1004.0 1004.0 0.0
22/12:17pm 17.4 10.3 6.3 48 5.5 NW 33 50 18 27 1004.2 1004.2 0.0
22/12:06pm 17.0 9.9 6.5 50 5.2 NNW 33 54 18 29 1004.3 1004.3 0.0
22/12:00pm 16.4 8.9 6.5 52 4.9 NNW 35 48 19 26 1004.5 1004.5 0.0
22/11:46am 16.3 9.5 6.7 53 4.7 NNW 32 50 17 27 1004.7 1004.7 0.0
22/11:30am 16.3 8.4 6.2 51 4.9 NNW 37 48 20 26 1004.6 1004.6 0.0
22/11:05am 16.4 9.9 6.5 52 4.8 NNW 30 48 16 26 1004.7 1004.7 0.0
22/11:00am 16.3 9.4 6.4 52 4.9 NNW 32 46 17 25 1004.9 1004.9 0.0
22/10:33am 15.6 8.7 6.3 54 4.5 NW 32 50 17 27 1004.9 1004.9 0.0
22/10:30am 15.6 8.7 6.3 54 4.5 NW 32 44 17 24 1005.0 1005.0 0.0
22/10:00am 15.3 8.4 6.6 56 4.3 NNW 32 50 17 27 1005.2 1005.2 0.0
22/09:32am 14.9 8.0 6.5 57 4.1 NNW 32 50 17 27 1005.3 1005.3 0.0
22/09:30am 15.0 8.5 6.6 57 4.1 NNW 30 43 16 23 1005.5 1005.5 0.0
22/09:23am 14.9 7.4 6.5 57 4.1 NNW 35 54 19 29 1005.5 1005.5 0.0
22/09:00am 15.1 7.6 6.4 56 4.2 NNW 35 52 19 28 1005.4 1005.4 0.0
22/08:31am 14.5 7.6 6.3 58 3.9 NNW 32 50 17 27 1005.4 1005.4 0.0
22/08:30am 14.7 8.2 6.5 58 4.0 NNW 30 44 16 24 1005.5 1005.5 0.0
22/08:00am 14.0 7.5 6.4 60 3.7 NNW 30 43 16 23 1005.3 1005.3 0.0
22/07:30am 13.1 7.4 6.5 64 3.2 N 26 37 14 20 1005.2 1005.2 0.0
22/07:00am 12.6 6.8 6.4 66 3.0 NNW 26 41 14 22 1005.1 1005.1 0.0
22/06:30am 12.2 6.8 6.3 67 2.8 NNW 24 35 13 19 1004.7 1004.7 0.0
22/06:00am 12.5 6.3 6.1 65 3.0 NNW 28 37 15 20 1004.4 1004.4 0.0
22/05:30am 13.0 7.5 5.9 62 3.3 NNW 24 30 13 16 1004.3 1004.3 0.0
22/05:00am 13.0 7.8 5.7 61 3.4 NNW 22 30 12 16 1004.1 1004.1 0.0
22/04:30am 13.4 8.5 5.3 58 3.8 NNW 20 30 11 16 1003.9 1003.9 0.0
22/04:00am 13.1 7.9 5.3 59 3.7 NNW 22 30 12 16 1003.8 1003.8 0.0
22/03:30am 13.5 8.6 4.9 56 4.0 NNW 20 33 11 18 1003.8 1003.8 0.0
22/03:00am 14.0 8.3 4.9 54 4.3 NNW 24 32 13 17 1003.7 1003.7 0.0
22/02:30am 13.7 8.9 4.8 55 4.1 NNW 19 24 10 13 1003.8 1003.8 0.0
22/02:00am 14.1 9.1 4.7 53 4.4 N 20 28 11 15 1004.0 1004.0 0.0
22/01:30am 14.4 8.3 4.7 52 4.5 N 26 33 14 18 1004.1 1004.1 0.0
22/01:00am 14.1 9.1 4.7 53 4.4 N 20 26 11 14 1004.3 1004.3 0.0
22/12:30am 13.4 8.4 4.8 56 4.0 N 20 24 11 13 1004.6 1004.6 0.0
22/12:00am 13.2 8.3 4.9 57 3.9 N 20 26 11 14 1004.6 1004.6 0.0
 
Date/Time
EST
Temp
°C
App
Temp
°C
Dew
Point
°C
Rel
Hum
%
Delta-T
°C
Wind Press
QNH
hPa
Press
MSL
hPa
Rain since
9am
mm
Dir  Spd
km/h
Gust
km/h
Spd
kts
Gust
kts
21/11:30pm 13.7 8.0 4.8 55 4.1 N 24 28 13 15 1004.5 1004.5 0.0
21/11:00pm 13.5 8.6 5.2 57 3.9 N 20 24 11 13 1004.5 1004.5 0.0
21/10:30pm 13.5 9.2 5.4 58 3.8 N 17 20 9 11 1004.6 1004.6 0.0
21/10:00pm 14.4 10.5 5.5 55 4.2 N 15 20 8 11 1004.6 1004.6 0.0
21/09:30pm 14.6 10.0 5.7 55 4.2 N 19 24 10 13 1004.2 1004.2 0.0
21/09:00pm 14.6 9.9 5.9 56 4.2 N 20 26 11 14 1003.8 1003.8 0.0
21/08:30pm 14.5 10.0 6.1 57 4.0 N 19 24 10 13 1003.6 1003.6 0.0
21/08:00pm 15.6 11.0 6.3 54 4.5 N 20 30 11 16 1003.4 1003.4 0.0
21/07:30pm 15.9 9.7 6.1 52 4.7 N 28 37 15 20 1003.1 1003.1 0.0
21/07:00pm 16.3 10.9 6.4 52 4.9 N 24 30 13 16 1002.8 1002.8 0.0
21/06:30pm 16.9 11.5 6.4 50 5.2 N 24 32 13 17 1002.8 1002.8 0.0
21/06:00pm 17.7 12.2 5.9 46 5.8 N 24 33 13 18 1002.9 1002.9 0.0
21/05:30pm 18.2 12.0 6.1 45 6.0 NNW 28 39 15 21 1002.8 1002.8 0.0
21/05:00pm 18.5 12.0 6.7 46 5.9 N 30 41 16 22 1002.6 1002.6 0.0
21/04:30pm 18.9 12.3 6.1 43 6.3 NNW 30 43 16 23 1002.4 1002.4 0.0
21/04:00pm 19.1 12.1 6.2 43 6.4 N 32 54 17 29 1002.2 1002.2 0.0
21/03:54pm 19.1 12.0 6.2 43 6.4 N 33 54 18 29 1002.2 1002.2 0.0
21/03:30pm 19.0 12.4 6.2 43 6.3 N 30 44 16 24 1002.5 1002.5 0.0
21/03:00pm 18.9 12.4 6.4 44 6.2 NNW 30 52 16 28 1002.9 1002.9 0.0
21/02:56pm 19.3 12.3 6.1 42 6.5 NNW 32 52 17 28 1003.0 1003.0 0.0
21/02:30pm 18.8 10.9 6.3 44 6.2 N 37 52 20 28 1003.2 1003.2 0.0
21/02:00pm 18.9 11.3 5.7 42 6.5 NNW 35 57 19 31 1003.2 1003.2 0.0
21/01:53pm 18.5 10.1 5.7 43 6.3 N 39 57 21 31 1003.3 1003.3 0.0
21/01:30pm 18.2 10.0 4.7 41 6.5 NNW 37 52 20 28 1003.6 1003.6 0.0
21/01:00pm 17.5 10.6 7.3 51 5.1 NNW 33 50 18 27 1003.7 1003.7 0.0
21/12:30pm 17.7 13.0 9.3 58 4.4 NNW 24 35 13 19 1004.1 1004.1 0.0
21/12:17pm 17.9 14.0 8.7 55 4.8 NNW 19 32 10 17 1004.3 1004.3 0.0
21/12:00pm 17.6 16.3 9.2 58 4.4 NNW 6 13 3 7 1004.0 1004.0 0.0
21/11:30am 15.6 14.4 11.6 77 2.2 S 9 13 5 7 1003.8 1003.8 0.0
21/11:00am 15.3 13.6 11.3 77 2.2 SSW 11 15 6 8 1004.1 1004.1 0.0
21/10:30am 15.4 12.9 11.2 76 2.2 SW 15 19 8 10 1004.1 1004.1 0.0
21/10:00am 17.7 14.6 11.7 68 3.3 NNW 19 28 10 15 1003.9 1003.9 0.0
21/09:30am 17.2 14.5 12.9 76 2.4 N 19 24 10 13 1004.8 1004.8 0.0
21/09:00am 16.1 16.6 11.7 75 2.4 CALM 0 0 0 0 1004.7 1004.7 0.8
21/08:30am 15.5 14.8 11.5 77 2.2 N 6 7 3 4 1005.0 1005.0 0.8
21/08:00am 15.1 14.7 12.4 84 1.5 N 6 7 3 4 1004.8 1004.8 0.8
21/07:30am 14.9 14.3 11.7 81 1.7 NNW 6 9 3 5 1005.0 1005.0 0.8
21/07:00am 14.7 13.5 11.5 81 1.7 W 9 15 5 8 1005.4 1005.4 0.8
21/06:30am 14.7 12.6 11.1 79 1.9 SW 13 19 7 10 1005.2 1005.2 0.8
21/06:00am 16.3 13.0 10.8 70 2.9 WNW 19 28 10 15 1004.8 1004.8 0.8
21/05:30am 17.2 14.7 13.5 79 2.1 NW 19 28 10 15 1004.9 1004.9 0.8
21/05:00am 17.3 13.9 13.6 79 2.1 NNW 24 37 13 20 1004.1 1004.1 0.8
21/04:30am 19.6 13.3 12.4 63 4.0 NNW 37 57 20 31 1003.3 1003.3 0.0
21/04:25am 19.7 14.1 12.2 62 4.2 NNW 33 57 18 31 1003.2 1003.2 0.0
21/04:00am 19.6 15.9 12.6 64 3.9 NNW 24 37 13 20 1002.8 1002.8 0.0
21/03:30am 19.8 14.6 12.8 64 4.0 N 32 44 17 24 1002.4 1002.4 0.0
21/03:00am 19.3 14.5 12.8 66 3.7 N 30 41 16 22 1002.6 1002.6 0.0
21/02:30am 19.5 14.4 13.0 66 3.7 N 32 41 17 22 1002.6 1002.6 0.0
21/02:00am 20.0 14.9 13.0 64 4.0 N 32 43 17 23 1003.3 1003.3 0.0
21/01:31am 20.6 14.4 12.8 61 4.4 N 37 56 20 30 1003.7 1003.7 0.0
21/01:30am 20.7 14.2 12.9 61 4.4 N 39 56 21 30 1003.7 1003.7 0.0
21/01:00am 20.4 15.2 13.4 64 4.0 N 33 46 18 25 1003.5 1003.5 0.0
21/12:30am 20.0 14.9 13.2 65 3.9 N 32 44 17 24 1003.8 1003.8 0.0
21/12:00am 19.1 15.2 13.3 69 3.3 N 26 33 14 18 1003.9 1003.9 0.0
 
Date/Time
EST
Temp
°C
App
Temp
°C
Dew
Point
°C
Rel
Hum
%
Delta-T
°C
Wind Press
QNH
hPa
Press
MSL
hPa
Rain since
9am
mm
Dir  Spd
km/h
Gust
km/h
Spd
kts
Gust
kts
20/11:30pm 19.0 14.0 13.4 70 3.2 N 32 43 17 23 1003.8 1003.8 0.0
20/11:00pm 19.1 14.1 13.5 70 3.2 N 32 44 17 24 1003.8 1003.8 0.0
20/10:34pm 19.3 14.3 13.3 68 3.4 N 32 50 17 27 1003.7 1003.7 0.0
20/10:30pm 19.2 14.2 13.4 69 3.3 N 32 41 17 22 1003.8 1003.8 0.0
20/10:00pm 19.0 13.9 13.2 69 3.3 N 32 39 17 21 1003.4 1003.4 0.0
20/09:30pm 19.0 13.7 13.2 69 3.3 N 33 44 18 24 1003.5 1003.5 0.0
20/09:00pm 18.7 14.0 13.1 70 3.2 N 30 37 16 20 1003.7 1003.7 0.0
20/08:30pm 18.5 14.5 12.9 70 3.1 N 26 35 14 19 1004.0 1004.0 0.0
20/08:00pm 18.0 15.1 12.9 72 2.9 N 20 28 11 15 1004.5 1004.5 0.0
20/07:30pm 18.2 15.5 12.9 71 3.0 N 19 26 10 14 1004.8 1004.8 0.0
20/07:00pm 19.0 15.7 12.7 67 3.5 N 22 30 12 16 1004.8 1004.8 0.0
20/06:30pm 19.3 15.6 12.8 66 3.7 N 24 33 13 18 1004.6 1004.6 0.0
20/06:00pm 19.9 15.4 12.7 63 4.1 NNW 28 41 15 22 1004.6 1004.6 0.0
20/05:31pm 20.0 15.4 12.3 61 4.3 N 28 46 15 25 1004.5 1004.5 0.0
20/05:30pm 20.0 15.1 12.5 62 4.2 N 30 46 16 25 1004.5 1004.5 0.0
20/05:00pm 20.4 14.1 12.4 60 4.5 NNW 37 52 20 28 1004.2 1004.2 0.0
20/04:30pm 21.3 15.5 12.7 58 4.9 N 35 44 19 24 1004.0 1004.0 0.0
20/04:00pm 21.5 16.1 12.9 58 4.9 N 33 52 18 28 1004.1 1004.1 0.0
20/03:53pm 21.1 15.6 12.5 58 4.9 N 33 52 18 28 1004.1 1004.1 0.0
20/03:30pm 21.2 14.5 12.3 57 5.0 N 39 52 21 28 1004.2 1004.2 0.0
20/03:00pm 22.2 16.9 12.5 54 5.5 NNW 32 46 17 25 1004.3 1004.3 0.0
20/02:30pm 21.8 15.5 12.4 55 5.3 NNW 37 56 20 30 1004.5 1004.5 0.0
20/02:22pm 21.6 15.4 12.5 56 5.2 NNW 37 56 20 30 1004.4 1004.4 0.0
20/02:00pm 22.0 16.5 12.3 54 5.5 NNW 33 50 18 27 1004.6 1004.6 0.0
20/01:30pm 21.3 15.3 12.2 56 5.1 NNW 35 48 19 26 1005.0 1005.0 0.0
20/01:14pm 21.4 15.9 12.3 56 5.1 NNW 33 52 18 28 1005.0 1005.0 0.0
20/01:00pm 21.6 16.0 12.2 55 5.3 N 33 48 18 26 1005.4 1005.4 0.0
20/12:40pm 21.4 15.4 12.0 55 5.3 NNW 35 56 19 30 1005.3 1005.3 0.0
20/12:30pm 21.1 15.1 12.0 56 5.1 NNW 35 52 19 28 1005.3 1005.3 0.0
20/12:26pm 21.5 16.2 12.6 57 5.0 NNW 32 50 17 27 1005.4 1005.4 0.0
20/12:00pm 22.1 17.2 13.7 59 4.9 NNW 32 46 17 25 1005.6 1005.6 0.0
20/11:30am 21.4 16.0 12.8 58 4.9 N 33 46 18 25 1005.7 1005.7 0.0
20/11:00am 20.7 14.9 12.7 60 4.5 N 35 48 19 26 1006.0 1006.0 0.0
20/10:30am 20.5 14.3 12.5 60 4.5 N 37 52 20 28 1006.4 1006.4 0.0
20/10:00am 20.1 14.0 11.8 59 4.6 N 35 48 19 26 1006.5 1006.5 0.0
20/09:30am 19.5 14.3 13.4 68 3.5 N 33 46 18 25 1006.7 1006.7 0.0
20/09:00am 18.2 13.6 13.5 74 2.7 N 30 43 16 23 1006.9 1006.9 0.6
20/08:30am 18.4 14.7 13.9 75 2.6 N 26 37 14 20 1007.1 1007.1 0.6
20/08:00am 17.7 14.1 14.2 80 2.0 N 26 41 14 22 1007.5 1007.5 0.6
20/07:30am 17.1 14.9 14.9 87 1.3 N 20 26 11 14 1007.7 1007.7 0.6
20/07:00am 17.2 14.7 14.1 82 1.8 NNE 20 26 11 14 1007.4 1007.4 0.6
20/06:30am 17.2 14.6 13.9 81 1.9 NNE 20 26 11 14 1007.1 1007.1 0.6
20/06:00am 17.3 15.0 14.0 81 1.9 NNE 19 28 10 15 1007.2 1007.2 0.6
20/05:30am 17.7 15.2 14.0 79 2.1 NNE 20 30 11 16 1007.1 1007.1 0.6
20/05:00am 17.6 14.6 13.7 78 2.2 NNE 22 35 12 19 1007.2 1007.2 0.6
20/04:30am 18.3 14.4 13.4 73 2.8 NNE 26 35 14 19 1007.1 1007.1 0.6
20/04:00am 18.4 14.5 13.3 72 2.9 NNE 26 32 14 17 1007.2 1007.2 0.6

Latest Capital City Observations: Canberra | Sydney | Melbourne | Brisbane | Adelaide | Perth | Hobart | Darwin

Other formats

Comma delimited format used in spreadsheet applications
http://www.bom.gov.au/fwo/IDV60901/IDV60901.94870.axf

JavaScript Object Notation format (JSON) in row-major order
http://www.bom.gov.au/fwo/IDV60901/IDV60901.94870.json

Data quality

Most of these data are generated automatically and are frequently updated. Quality checks on data are not normally performed. It is possible for incorrect values to appear. Refer to information at About Latest Weather Observations and please check the disclaimer before using these data.